Time;durP1;ratioP1;P1;durP2;ratioP2;P2;SDS_P1;SDS_P2;PMS_P1;PMS_P2;Temp;Humidity;BMP_temperature;BMP_pressure;BME280_temperature;BME280_humidity;BME280_pressure;Samples;Min_cycle;Max_cycle;Signal;HPM_P1;HPM_P2
2022/11/06 00:00:34;;;;;;;7.70;5.10;;;;;;;;;;5078334;28;20824;-67
2022/11/06 00:03:02;;;;;;;7.30;4.30;;;;;;;;;;5092136;28;20464;-67
2022/11/06 00:08:26;;;;;;;9.07;3.90;;;;;;;;;;5090955;28;20483;-67
2022/11/06 00:10:53;;;;;;;10.60;5.10;;;;;;;;;;5091687;28;21023;-67
2022/11/06 00:13:20;;;;;;;5.80;4.27;;;;;;;;;;5091460;28;20806;-67
2022/11/06 00:15:47;;;;;;;11.53;4.63;;;;;;;;;;5090995;28;20489;-67
2022/11/06 00:18:14;;;;;;;6.50;5.37;;;;;;;;;;5090931;28;20470;-67
2022/11/06 00:20:41;;;;;;;4.73;3.30;;;;;;;;;;5091853;28;20465;-67
2022/11/06 00:23:09;;;;;;;10.27;4.70;;;;;;;;;;5090912;28;20469;-67
2022/11/06 00:25:40;;;;;;;4.83;3.50;;;;;;;;;;5091323;28;20887;-67
2022/11/06 00:28:07;;;;;;;9.67;5.03;;;;;;;;;;5091293;28;20446;-67
2022/11/06 00:30:34;;;;;;;5.23;4.10;;;;;;;;;;5091444;28;20460;-67
2022/11/06 00:33:01;;;;;;;8.57;4.90;;;;;;;;;;5091900;28;20446;-67
2022/11/06 00:35:28;;;;;;;10.50;5.20;;;;;;;;;;5091427;28;20487;-67
2022/11/06 00:37:56;;;;;;;7.90;4.00;;;;;;;;;;5091186;28;20456;-67
2022/11/06 00:40:23;;;;;;;7.80;4.57;;;;;;;;;;5090730;28;21159;-67
2022/11/06 00:42:55;;;;;;;7.73;4.03;;;6.50;99.90;;;;;;5091149;28;20476;-67
2022/11/06 00:45:22;;;;;;;8.27;5.03;;;5.90;99.90;;;;;;5090189;28;20448;-67
2022/11/06 00:47:49;;;;;;;10.83;5.03;;;5.70;99.90;;;;;;5090736;28;20484;-67
2022/11/06 00:50:16;;;;;;;6.60;3.77;;;5.50;99.90;;;;;;5090618;28;20456;-67
2022/11/06 00:52:43;;;;;;;6.63;4.70;;;5.20;99.90;;;;;;5091320;28;20457;-67
2022/11/06 00:55:10;;;;;;;8.07;4.43;;;5.10;99.90;;;;;;5090450;28;20482;-67
2022/11/06 00:57:37;;;;;;;5.30;4.30;;;5.30;99.90;;;;;;5091170;28;20445;-67
2022/11/06 01:00:06;;;;;;;7.83;3.90;;;5.10;99.90;;;;;;5090423;28;20445;-67
2022/11/06 01:02:33;;;;;;;6.77;4.50;;;5.10;99.90;;;;;;5090969;28;20455;-67
2022/11/06 01:05:00;;;;;;;6.23;4.00;;;5.40;99.90;;;;;;5091216;28;21027;-67
2022/11/06 01:07:27;;;;;;;5.93;4.37;;;;;;;;;;5089927;28;20447;-67
2022/11/06 01:09:54;;;;;;;5.00;3.83;;;;;;;;;;5090844;28;20464;-67
2022/11/06 01:12:21;;;;;;;5.37;3.57;;;;;;;;;;5090316;28;20809;-67
2022/11/06 01:14:48;;;;;;;10.10;4.57;;;;;;;;;;5091270;28;20448;-67
2022/11/06 01:17:17;;;;;;;6.90;4.60;;;;;;;;;;5089557;28;20851;-67
2022/11/06 01:19:44;;;;;;;8.70;5.43;;;;;;;;;;5087724;28;20457;-67
2022/11/06 01:22:11;;;;;;;7.50;4.70;;;;;;;;;;5090537;28;20470;-68
2022/11/06 01:24:38;;;;;;;7.97;5.00;;;;;;;;;;5090782;28;20459;-67
2022/11/06 01:27:05;;;;;;;5.63;4.63;;;;;;;;;;5093223;28;20459;-68
2022/11/06 01:29:32;;;;;;;5.47;4.87;;;;;;;;;;5095047;28;20454;-67
2022/11/06 01:31:59;;;;;;;8.70;4.30;;;;;;;;;;5094501;28;20449;-67
2022/11/06 01:34:28;;;;;;;6.47;4.00;;;;;;;;;;5094567;28;20453;-67
2022/11/06 01:36:55;;;;;;;5.23;4.10;;;;;;;;;;5094323;28;20492;-67
2022/11/06 01:39:22;;;;;;;7.50;4.67;;;;;;;;;;5094010;28;20448;-67
2022/11/06 01:41:51;;;;;;;8.37;4.23;;;;;;;;;;5094404;28;20451;-67
2022/11/06 01:44:36;;;;;;;5.73;4.30;;;;;;;;;;5093762;28;20801;-67
2022/11/06 01:47:06;;;;;;;6.23;4.53;;;;;;;;;;5093583;28;20451;-67
2022/11/06 01:49:36;;;;;;;4.13;3.50;;;;;;;;;;5094608;28;20476;-67
2022/11/06 01:52:06;;;;;;;5.70;4.13;;;;;;;;;;5093681;28;20454;-67
2022/11/06 01:54:35;;;;;;;4.37;3.23;;;;;;;;;;5094333;28;20441;-67
2022/11/06 01:57:03;;;;;;;6.77;4.00;;;;;;;;;;5093816;28;20486;-67
2022/11/06 01:59:32;;;;;;;6.90;4.90;;;;;;;;;;5094348;28;20449;-67
2022/11/06 02:02:00;;;;;;;5.33;4.50;;;;;;;;;;5093803;28;20455;-67
2022/11/06 02:04:28;;;;;;;6.10;4.27;;;;;;;;;;5093546;28;20450;-67
2022/11/06 02:06:57;;;;;;;6.23;4.13;;;;;;;;;;5093510;28;20464;-67
2022/11/06 02:09:25;;;;;;;6.63;3.80;;;;;;;;;;5093469;28;20450;-67
2022/11/06 02:11:53;;;;;;;5.07;3.60;;;;;;;;;;5093720;28;20852;-67
2022/11/06 02:14:25;;;;;;;5.47;4.40;;;;;;;;;;5093141;28;20463;-67
2022/11/06 02:16:53;;;;;;;7.53;4.10;;;;;;;;;;5080518;28;20514;-67
2022/11/06 02:19:26;;;;;;;6.30;3.97;;;;;;;;;;5093226;28;20464;-67
2022/11/06 02:22:17;;;;;;;6.80;6.13;;;;;;;;;;5093306;28;20452;-67
2022/11/06 02:25:03;;;;;;;7.60;5.03;;;;;;;;;;5093108;28;20441;-68
2022/11/06 02:27:31;;;;;;;10.00;4.57;;;;;;;;;;5088012;28;20812;-68
2022/11/06 02:30:01;;;;;;;4.67;3.73;;;;;;;;;;5093835;28;20482;-67
2022/11/06 02:32:29;;;;;;;12.73;4.93;;;;;;;;;;5093416;28;20453;-67
2022/11/06 02:34:59;;;;;;;6.83;4.83;;;;;;;;;;5093488;28;20451;-67
2022/11/06 02:37:28;;;;;;;7.37;3.90;;;;;;;;;;5091876;28;20483;-67
2022/11/06 02:39:56;;;;;;;14.63;5.17;;;;;;;;;;5093347;28;20455;-67
2022/11/06 02:42:24;;;;;;;7.60;3.90;;;;;;;;;;5090063;28;20452;-67
2022/11/06 02:44:53;;;;;;;4.83;3.83;;;;;;;;;;5093238;28;20450;-67
2022/11/06 02:47:23;;;;;;;6.80;4.20;;;;;;;;;;5092001;28;20964;-67
2022/11/06 02:49:53;;;;;;;6.27;4.83;;;;;;;;;;5093296;28;20469;-67
2022/11/06 02:52:22;;;;;;;8.33;5.20;;;;;;;;;;5092083;28;20940;-67
2022/11/06 02:54:52;;;;;;;4.67;3.30;;;;;;;;;;5092780;28;20445;-67
2022/11/06 02:57:20;;;;;;;8.40;5.80;;;;;;;;;;5091923;28;20484;-67
2022/11/06 02:59:51;;;;;;;7.80;5.50;;;;;;;;;;5093534;28;20552;-67
2022/11/06 03:02:22;;;;;;;9.47;4.73;;;;;;;;;;5099770;28;20440;-67
2022/11/06 03:04:53;;;;;;;7.70;4.80;;;;;;;;;;5097444;28;20453;-67
2022/11/06 03:07:22;;;;;;;5.07;4.17;;;;;;;;;;5091867;28;20825;-67
2022/11/06 03:09:50;;;;;;;5.47;3.80;;;;;;;;;;5092898;28;20721;-67
2022/11/06 03:12:21;;;;;;;10.40;5.33;;;;;;;;;;5091824;28;20545;-67
2022/11/06 03:14:52;;;;;;;6.77;4.70;;;;;;;;;;5092611;28;20445;-67
2022/11/06 03:17:23;;;;;;;5.60;4.53;;;;;;;;;;5091730;28;20465;-67
2022/11/06 03:19:53;;;;;;;8.27;3.87;;;;;;;;;;5092451;28;20956;-67
2022/11/06 03:22:25;;;;;;;6.20;3.90;;;;;;;;;;5091457;28;20453;-67
2022/11/06 03:24:58;;;;;;;4.60;4.03;;;;;;;;;;5092085;28;20937;-67
2022/11/06 03:27:33;;;;;;;7.20;4.53;;;;;;;;;;5092285;28;20455;-67
2022/11/06 03:30:01;;;;;;;6.33;4.77;;;;;;;;;;5087148;28;20449;-67
2022/11/06 03:32:32;;;;;;;6.60;4.13;;;;;;;;;;5092331;28;20457;-67
2022/11/06 03:35:03;;;;;;;8.50;4.77;;;;;;;;;;5092518;28;20445;-67
2022/11/06 03:37:33;;;;;;;6.93;3.77;;;;;;;;;;5092377;28;20476;-66
2022/11/06 03:40:03;;;;;;;7.27;3.40;;;;;;;;;;5092403;28;20444;-67
2022/11/06 03:42:30;;;;;;;8.83;4.60;;;;;;;;;;5092866;28;20460;-67
2022/11/06 03:45:00;;;;;;;5.00;4.20;;;;;;;;;;5091760;28;20455;-68
2022/11/06 03:47:30;;;;;;;5.43;4.20;;;;;;;;;;5091866;28;20458;-66
2022/11/06 03:50:01;;;;;;;11.70;4.10;;;;;;;;;;5091415;28;20452;-67
2022/11/06 03:52:32;;;;;;;5.13;3.60;;;;;;;;;;5090744;28;20454;-67
2022/11/06 03:55:00;;;;;;;8.43;4.80;;;;;;;;;;5092000;28;20799;-67
2022/11/06 03:57:30;;;;;;;9.33;4.50;;;;;;;;;;5090757;28;20492;-67
2022/11/06 03:59:59;;;;;;;9.73;4.73;;;;;;;;;;5087283;28;20453;-67
2022/11/06 04:02:29;;;;;;;6.77;4.60;;;;;;;;;;5092022;28;20762;-67
2022/11/06 04:04:57;;;;;;;7.17;3.80;;;;;;;;;;5091501;28;20467;-67
2022/11/06 04:07:28;;;;;;;5.97;4.03;;;;;;;;;;5091202;28;20449;-67
2022/11/06 04:15:31;;;;;;;6.00;3.73;;;;;;;;;;5083455;28;20424;-67
2022/11/06 04:17:58;;;;;;;7.50;3.83;;;;;;;;;;5091751;28;20541;-67
2022/11/06 04:23:20;;;;;;;5.73;4.00;;;;;;;;;;5090042;28;20495;-67
2022/11/06 04:28:43;;;;;;;8.53;4.70;;;;;;;;;;5081633;28;20579;-67
2022/11/06 04:31:12;;;;;;;6.90;4.07;;;;;;;;;;5091053;28;20443;-67
2022/11/06 04:33:45;;;;;;;6.43;3.80;;;;;;;;;;5091653;28;20491;-67
2022/11/06 04:36:18;;;;;;;5.33;3.60;;;;;;;;;;5090646;28;20470;-67
2022/11/06 04:38:52;;;;;;;5.83;5.23;;;;;;;;;;5090424;28;20457;-67
2022/11/06 04:41:21;;;;;;;8.17;4.60;;;;;;;;;;5090646;28;20443;-67
2022/11/06 04:43:51;;;;;;;5.67;3.47;;;;;;;;;;5090999;28;20453;-67
2022/11/06 04:46:20;;;;;;;5.00;2.80;;;;;;;;;;5090360;28;20453;-67
2022/11/06 04:48:48;;;;;;;5.00;4.17;;;;;;;;;;5090522;28;20477;-67
2022/11/06 04:51:16;;;;;;;7.40;4.70;;;;;;;;;;5090501;28;20454;-67
2022/11/06 04:53:44;;;;;;;7.07;4.50;;;;;;;;;;5090827;28;21309;-67
2022/11/06 04:56:13;;;;;;;5.70;4.10;;;;;;;;;;5090129;28;20481;-67
2022/11/06 04:58:40;;;;;;;4.30;3.70;;;;;;;;;;5090936;28;20449;-67
2022/11/06 05:01:07;;;;;;;5.30;3.73;;;;;;;;;;5089960;28;20459;-67
2022/11/06 05:03:34;;;;;;;5.17;3.17;;;;;;;;;;5104727;28;20446;-67
2022/11/06 05:06:01;;;;;;;4.43;3.13;;;;;;;;;;5090671;28;20458;-67
2022/11/06 05:08:28;;;;;;;5.53;3.80;;;;;;;;;;5090465;28;20532;-67
2022/11/06 05:10:56;;;;;;;7.67;4.00;;;;;;;;;;5090831;28;20445;-67
2022/11/06 05:13:24;;;;;;;4.53;3.33;;;;;;;;;;5090470;28;21089;-67
2022/11/06 05:15:56;;;;;;;4.67;3.80;;;;;;;;;;5089931;28;20449;-67
2022/11/06 05:18:23;;;;;;;5.97;3.50;;;;;;;;;;5089963;28;20916;-67
2022/11/06 05:22:56;;;;;;;3.53;2.20;;;;;;;;;;5090909;28;20449;-67
2022/11/06 05:23:37;;;;;;;3.10;2.37;;;;;;;;;;5090054;28;20473;-67
2022/11/06 05:26:05;;;;;;;5.43;3.33;;;;;;;;;;5089832;28;20502;-67
2022/11/06 05:28:33;;;;;;;4.37;3.40;;;;;;;;;;5091191;28;20531;-67
2022/11/06 05:31:00;;;;;;;4.90;3.10;;;;;;;;;;5090629;28;20458;-67
2022/11/06 05:33:27;;;;;;;9.50;4.73;;;;;;;;;;5086313;28;20523;-67
2022/11/06 05:35:54;;;;;;;4.67;4.10;;;;;;;;;;5090524;28;20816;-67
2022/11/06 05:38:21;;;;;;;7.07;3.90;;;;;;;;;;5090069;28;20480;-67
2022/11/06 05:40:49;;;;;;;5.47;4.23;;;;;;;;;;5089728;28;20451;-67
2022/11/06 05:43:16;;;;;;;6.47;3.40;;;;;;;;;;5090231;28;20442;-68
2022/11/06 05:45:44;;;;;;;4.03;3.40;;;;;;;;;;5089696;28;20461;-68
2022/11/06 05:48:11;;;;;;;4.70;3.60;;;;;;;;;;5089792;28;20470;-68
2022/11/06 05:50:38;;;;;;;6.03;3.70;;;;;;;;;;5090475;28;20454;-67
2022/11/06 05:53:05;;;;;;;3.00;2.60;;;5.30;99.90;;;;;;5089796;28;20447;-67
2022/11/06 05:55:32;;;;;;;8.43;4.43;;;2.90;99.90;;;;;;5089666;28;20451;-67
2022/11/06 05:57:59;;;;;;;7.53;4.87;;;;;;;;;;5090453;28;20481;-68
2022/11/06 06:00:26;;;;;;;5.53;3.23;;;;;;;;;;5089708;28;20460;-67
2022/11/06 06:02:55;;;;;;;4.20;2.67;;;;;;;;;;5090338;28;20451;-67
2022/11/06 06:05:22;;;;;;;3.37;2.80;;;;;;;;;;5089704;28;20454;-67
2022/11/06 06:07:49;;;;;;;4.70;3.00;;;;;;;;;;5090316;28;20464;-67
2022/11/06 06:10:16;;;;;;;5.27;3.47;;;;;;;;;;5089743;28;20445;-67
2022/11/06 06:12:43;;;;;;;4.50;3.63;;;;;;;;;;5091890;28;20516;-67
2022/11/06 06:15:13;;;;;;;14.73;3.40;;;;;;;;;;5092686;28;20445;-67
2022/11/06 06:17:40;;;;;;;6.43;3.37;;;;;;;;;;5093824;28;20505;-67
2022/11/06 06:20:10;;;;;;;7.80;3.13;;;;;;;;;;5092885;28;20445;-67
2022/11/06 06:22:37;;;;;;;4.83;3.93;;;;;;;;;;5093817;28;20455;-67
2022/11/06 06:25:04;;;;;;;4.00;2.23;;;;;;;;;;5081004;28;20441;-67
2022/11/06 06:27:31;;;;;;;4.60;3.17;;;;;;;;;;5092955;28;20454;-67
2022/11/06 06:29:58;;;;;;;2.83;2.17;;;;;;;;;;5092722;28;20797;-67
2022/11/06 06:32:26;;;;;;;3.87;2.90;;;;;;;;;;5093113;28;20481;-66
2022/11/06 06:34:53;;;;;;;4.27;3.30;;;;;;;;;;5093797;28;20453;-67
2022/11/06 06:37:21;;;;;;;6.00;3.90;;;;;;;;;;5093325;28;20485;-67
2022/11/06 06:39:48;;;;;;;6.07;3.40;;;;;;;;;;5093756;28;20476;-67
2022/11/06 06:42:15;;;;;;;2.97;2.73;;;;;;;;;;5092928;28;20446;-67
2022/11/06 06:44:43;;;;;;;6.10;5.03;;;;;;;;;;5092437;28;20958;-67
2022/11/06 06:47:10;;;;;;;7.50;4.63;;;;;;;;;;5091511;28;20445;-67
2022/11/06 06:49:37;;;;;;;3.60;3.03;;;;;;;;;;5092823;28;20979;-70
2022/11/06 06:52:04;;;;;;;4.27;3.87;;;;;;;;;;5092911;28;20448;-69
2022/11/06 06:54:32;;;;;;;6.03;3.03;;;;;;;;;;5092502;28;20854;-70
2022/11/06 06:57:00;;;;;;;5.70;2.70;;;;;;;;;;5091813;28;20481;-69
2022/11/06 06:59:28;;;;;;;4.97;4.10;;;;;;;;;;5092011;28;20466;-67
2022/11/06 07:01:56;;;;;;;7.37;4.77;;;;;;;;;;5097151;28;20808;-67
2022/11/06 07:04:23;;;;;;;3.80;3.40;;;;;;;;;;5094688;28;20450;-67
2022/11/06 07:06:50;;;;;;;5.50;4.00;;;;;;;;;;5084525;28;20447;-67
2022/11/06 07:09:18;;;;;;;5.17;2.70;;;;;;;;;;5084033;28;20445;-67
2022/11/06 07:11:46;;;;;;;3.60;2.60;;;;;;;;;;5091508;28;20460;-67
2022/11/06 07:14:13;;;;;;;4.97;4.17;;;2.90;99.90;;;;;;5084849;28;20454;-67
2022/11/06 07:16:40;;;;;;;4.10;3.27;;;;;;;;;;5092004;28;20449;-67
2022/11/06 07:19:07;;;;;;;5.73;3.73;;;;;;;;;;5092440;28;20459;-68
2022/11/06 07:21:34;;;;;;;7.80;5.00;;;;;;;;;;5092500;28;20441;-68
2022/11/06 07:24:01;;;;;;;3.63;2.80;;;;;;;;;;5085309;28;20453;-68
2022/11/06 07:26:28;;;;;;;5.87;4.37;;;;;;;;;;5087540;28;21020;-67
2022/11/06 07:28:57;;;;;;;4.83;3.30;;;;;;;;;;5086317;28;20945;-68
2022/11/06 07:31:24;;;;;;;4.10;3.70;;;;;;;;;;5089586;28;20452;-68
2022/11/06 07:33:51;;;;;;;6.07;3.83;;;;;;;;;;5090082;28;20445;-68
2022/11/06 07:36:18;;;;;;;9.50;4.20;;;;;;;;;;5089061;28;20456;-67
2022/11/06 07:38:45;;;;;;;6.73;3.63;;;;;;;;;;5083821;28;20488;-69
2022/11/06 07:41:14;;;;;;;7.13;3.53;;;;;;;;;;5085037;28;20823;-68
2022/11/06 07:43:41;;;;;;;7.20;3.83;;;;;;;;;;5084044;28;20442;-68
2022/11/06 07:46:11;;;;;;;9.40;4.27;;;;;;;;;;5089026;28;20458;-68
2022/11/06 07:48:39;;;;;;;5.00;3.53;;;;;;;;;;5089617;28;20481;-67
2022/11/06 07:51:07;;;;;;;3.43;2.80;;;;;;;;;;5089186;28;20465;-68
2022/11/06 07:53:35;;;;;;;7.07;3.10;;;;;;;;;;5089809;28;20467;-67
2022/11/06 07:56:02;;;;;;;6.43;4.00;;;;;;;;;;5089085;28;21013;-67
2022/11/06 07:58:30;;;;;;;9.70;3.93;;;;;;;;;;5089480;28;20496;-67
2022/11/06 08:00:57;;;;;;;5.03;3.87;;;;;;;;;;5089888;28;20451;-68
2022/11/06 08:03:28;;;;;;;4.07;2.97;;;3.60;99.90;;;;;;5087753;28;20961;-68
2022/11/06 08:05:56;;;;;;;6.70;3.50;;;;;;;;;;5087066;28;20449;-68
2022/11/06 08:08:23;;;;;;;8.57;5.10;;;;;;;;;;5088954;28;20700;-68
2022/11/06 08:10:52;;;;;;;3.83;2.70;;;;;;;;;;5087922;28;20461;-68
2022/11/06 08:13:20;;;;;;;4.20;2.70;;;;;;;;;;5088551;28;20463;-67
2022/11/06 08:15:47;;;;;;;3.47;2.20;;;;;;;;;;5089299;28;20591;-69
2022/11/06 08:18:14;;;;;;;6.33;3.10;;;;;;;;;;5086591;28;20497;-68
2022/11/06 08:20:42;;;;;;;3.87;3.00;;;;;;;;;;5087719;28;20488;-67
2022/11/06 08:23:12;;;;;;;6.37;3.33;;;;;;;;;;5080930;28;20461;-67
2022/11/06 08:25:39;;;;;;;4.00;3.60;;;;;;;;;;5084900;28;20442;-67
2022/11/06 08:28:06;;;;;;;6.23;3.50;;;;;;;;;;5087876;28;20444;-67
2022/11/06 08:30:33;;;;;;;3.20;2.53;;;;;;;;;;5088482;28;20455;-67
2022/11/06 08:33:01;;;;;;;5.40;3.93;;;;;;;;;;5088707;28;20453;-67
2022/11/06 08:35:29;;;;;;;3.60;2.20;;;;;;;;;;5088017;28;20476;-67
2022/11/06 08:37:57;;;;;;;5.77;2.63;;;;;;;;;;5088525;28;20475;-67
2022/11/06 08:40:24;;;;;;;2.70;2.37;;;;;;;;;;5088196;28;20452;-67
2022/11/06 08:42:52;;;;;;;3.00;2.37;;;;;;;;;;5088414;28;20458;-67
2022/11/06 08:45:19;;;;;;;2.90;1.80;;;;;;;;;;5087399;28;20464;-69
2022/11/06 08:47:46;;;;;;;4.77;3.67;;;;;;;;;;5074769;28;21008;-68
2022/11/06 08:50:13;;;;;;;8.13;5.50;;;;;;;;;;5087981;28;20447;-68
2022/11/06 08:52:40;;;;;;;6.83;2.97;;;;;;;;;;5088158;28;20810;-67
2022/11/06 08:55:09;;;;;;;3.97;3.20;;;;;;;;;;5087886;28;20451;-67
2022/11/06 08:57:36;;;;;;;3.53;2.90;;;;;;;;;;5088643;28;20563;-67
2022/11/06 09:00:04;;;;;;;5.00;3.37;;;;;;;;;;5086394;28;20445;-69
2022/11/06 09:02:31;;;;;;;8.27;3.27;;;;;;;;;;5088771;28;20602;-77
2022/11/06 09:04:58;;;;;;;7.10;4.43;;;;;;;;;;5086578;28;20799;-69
2022/11/06 09:07:25;;;;;;;6.43;3.17;;;;;;;;;;5087176;28;20460;-67
2022/11/06 09:09:52;;;;;;;6.03;3.40;;;;;;;;;;5087939;28;20452;-67
2022/11/06 09:12:21;;;;;;;6.10;3.33;;;;;;;;;;5087951;28;20463;-67
2022/11/06 09:14:48;;;;;;;14.13;4.33;;;;;;;;;;5087883;28;20925;-67
2022/11/06 09:17:15;;;;;;;5.33;4.43;;;4.30;99.90;;;;;;5087515;28;20449;-67
2022/11/06 09:19:42;;;;;;;6.80;4.13;;;5.40;99.90;;;;;;5085892;28;20459;-67
2022/11/06 09:22:09;;;;;;;5.83;4.23;;;5.50;99.90;;;;;;5087345;28;20450;-67
2022/11/06 09:24:36;;;;;;;7.80;4.40;;;5.70;99.90;;;;;;5088407;28;20466;-67
2022/11/06 09:27:03;;;;;;;6.43;4.13;;;5.80;99.90;;;;;;5088745;28;20453;-67
2022/11/06 09:29:31;;;;;;;5.03;3.23;;;6.00;99.90;;;;;;5088402;28;20953;-67
2022/11/06 09:31:58;;;;;;;6.03;3.70;;;6.10;99.90;;;;;;5088943;28;20453;-67
2022/11/06 09:34:24;;;;;;;7.40;3.60;;;6.40;99.90;;;;;;5087228;28;20458;-68
2022/11/06 09:36:51;;;;;;;13.10;5.70;;;6.70;99.90;;;;;;5087700;28;20467;-68
2022/11/06 09:39:18;;;;;;;5.37;2.83;;;6.90;82.30;;;;;;5087345;28;21014;-67
2022/11/06 09:41:53;;;;;;;4.60;3.20;;;7.00;1.00;;;;;;5087798;28;20460;-67
2022/11/06 09:44:30;;;;;;;6.00;3.43;;;7.10;21.10;;;;;;5086765;28;20460;-67
2022/11/06 09:47:04;;;;;;;3.90;3.03;;;7.20;6.70;;;;;;5088116;28;20442;-67
2022/11/06 09:49:36;;;;;;;5.37;4.13;;;7.40;1.00;;;;;;5092006;28;21023;-68
2022/11/06 09:52:10;;;;;;;7.23;4.70;;;7.50;1.00;;;;;;5090902;28;20448;-67
2022/11/06 09:54:43;;;;;;;11.17;3.73;;;7.60;1.00;;;;;;5090676;28;20454;-67
2022/11/06 09:57:12;;;;;;;3.43;3.13;;;;;;;;;;5091559;28;20454;-66
2022/11/06 09:59:40;;;;;;;5.70;3.07;;;;;;;;;;5091739;28;20492;-67
2022/11/06 10:02:19;;;;;;;5.97;3.87;;;;;;;;;;5091063;28;20920;-67
2022/11/06 10:04:49;;;;;;;10.10;3.47;;;;;;;;;;5088966;28;20440;-67
2022/11/06 10:07:23;;;;;;;5.30;3.70;;;;;;;;;;5089651;28;20929;-67
2022/11/06 10:09:50;;;;;;;6.20;3.93;;;;;;;;;;5084331;28;20441;-67
2022/11/06 10:12:20;;;;;;;6.30;3.90;;;;;;;;;;5090687;28;20958;-67
2022/11/06 10:14:57;;;;;;;5.13;3.43;;;;;;;;;;5087095;28;20445;-67
2022/11/06 10:17:31;;;;;;;4.90;3.77;;;;;;;;;;5082258;28;20831;-67
2022/11/06 10:20:03;;;;;;;3.17;2.50;;;;;;;;;;5091286;28;20449;-67
2022/11/06 10:22:35;;;;;;;4.97;3.23;;;;;;;;;;5091771;28;20459;-67
2022/11/06 10:25:07;;;;;;;6.57;3.70;;;;;;;;;;5088214;28;20445;-67
2022/11/06 10:27:38;;;;;;;8.57;4.57;;;;;;;;;;5091260;28;20450;-67
2022/11/06 10:30:09;;;;;;;4.80;3.03;;;;;;;;;;5091187;28;20458;-67
2022/11/06 10:32:57;;;;;;;4.73;2.67;;;;;;;;;;5091255;28;20976;-67
2022/11/06 10:35:28;;;;;;;3.60;2.43;;;;;;;;;;5083855;28;20456;-66
2022/11/06 10:37:58;;;;;;;6.90;3.60;;;;;;;;;;5091402;28;20586;-67
2022/11/06 10:40:26;;;;;;;3.23;1.97;;;;;;;;;;5077884;28;20800;-66
2022/11/06 10:42:57;;;;;;;3.20;2.23;;;;;;;;;;5091021;28;20765;-66
2022/11/06 10:45:24;;;;;;;3.93;2.53;;;;;;;;;;5090247;28;20441;-66
2022/11/06 10:47:53;;;;;;;3.17;2.37;;;;;;;;;;5082893;28;20484;-66
2022/11/06 10:50:20;;;;;;;3.07;2.13;;;;;;;;;;5085290;28;20459;-66
2022/11/06 10:52:52;;;;;;;2.50;2.27;;;;;;;;;;5080996;28;20441;-66
2022/11/06 10:55:35;;;;;;;2.53;2.13;;;;;;;;;;5090030;28;20459;-66
2022/11/06 10:58:03;;;;;;;2.20;1.70;;;;;;;;;;5090427;28;20567;-67
2022/11/06 11:00:32;;;;;;;3.53;2.40;;;;;;;;;;5091123;28;20475;-66
2022/11/06 11:03:00;;;;;;;2.60;2.30;;;;;;;;;;5090820;28;20449;-66
2022/11/06 11:05:30;;;;;;;2.67;2.47;;;;;;;;;;5087459;28;20445;-69
2022/11/06 11:07:58;;;;;;;7.43;4.57;;;;;;;;;;5090898;28;20467;-68
2022/11/06 11:10:26;;;;;;;4.93;2.90;;;;;;;;;;5089908;28;20453;-67
2022/11/06 11:12:55;;;;;;;5.87;3.30;;;;;;;;;;5090342;28;20448;-67
2022/11/06 11:15:22;;;;;;;3.10;2.63;;;;;;;;;;5086980;28;20447;-67
2022/11/06 11:18:04;;;;;;;2.73;2.43;;;;;;;;;;5087110;28;20813;-69
2022/11/06 11:20:32;;;;;;;3.60;2.33;;;;;;;;;;5090581;28;20459;-67
2022/11/06 11:23:08;;;;;;;4.70;3.00;;;;;;;;;;5089979;28;20463;-67
2022/11/06 11:25:35;;;;;;;3.10;2.50;;;;;;;;;;5089975;28;20455;-67
2022/11/06 11:28:04;;;;;;;4.40;2.57;;;;;;;;;;5090422;28;20460;-67
2022/11/06 11:30:31;;;;;;;3.27;2.07;;;;;;;;;;5090449;28;20453;-67
2022/11/06 11:32:58;;;;;;;3.30;2.63;;;;;;;;;;5090655;28;20467;-67
2022/11/06 11:35:27;;;;;;;3.30;2.33;;;;;;;;;;5089067;28;20448;-69
2022/11/06 11:38:05;;;;;;;1.87;1.50;;;;;;;;;;5090490;28;20448;-68
2022/11/06 11:40:35;;;;;;;3.13;1.93;;;;;;;;;;5090159;28;20554;-67
2022/11/06 11:43:16;;;;;;;3.47;2.10;;;;;;;;;;5090407;28;20523;-68
2022/11/06 11:45:43;;;;;;;2.87;2.17;;;;;;;;;;5089929;28;20445;-67
2022/11/06 11:48:13;;;;;;;2.50;1.60;;;;;;;;;;5078743;28;20571;-68
2022/11/06 11:50:40;;;;;;;5.60;2.40;;;;;;;;;;5086299;28;20523;-68
2022/11/06 11:53:13;;;;;;;3.90;2.50;;;;;;;;;;5086952;28;20469;-67
2022/11/06 11:55:45;;;;;;;3.10;2.17;;;;;;;;;;5090509;28;20456;-67
2022/11/06 11:58:22;;;;;;;2.80;1.33;;;;;;;;;;5089964;28;20464;-67
2022/11/06 12:00:52;;;;;;;2.27;2.00;;;;;;;;;;5082094;28;20447;-67
2022/11/06 12:03:19;;;;;;;3.27;2.30;;;;;;;;;;5078242;28;20454;-68
2022/11/06 12:05:46;;;;;;;2.37;1.80;;;;;;;;;;5091102;28;20445;-68
2022/11/06 12:08:21;;;;;;;2.60;2.00;;;;;;;;;;5090889;28;20453;-67
2022/11/06 12:10:49;;;;;;;3.47;2.20;;;;;;;;;;5091245;28;20436;-68
2022/11/06 12:13:20;;;;;;;2.47;1.83;;;7.70;1.00;;;;;;5091203;28;20940;-68
2022/11/06 12:15:51;;;;;;;4.17;2.83;;;11.60;99.90;;;;;;5091771;28;20447;-68
2022/11/06 12:18:21;;;;;;;4.80;2.03;;;11.50;99.90;;;;;;5090953;28;20492;-68
2022/11/06 12:20:54;;;;;;;2.23;1.90;;;11.40;99.90;;;;;;5092006;28;20813;-68
2022/11/06 12:23:27;;;;;;;3.97;2.10;;;11.50;99.90;;;;;;5091818;28;20448;-68
2022/11/06 12:26:04;;;;;;;3.50;2.40;;;11.60;99.90;;;;;;5091216;28;20456;-68
2022/11/06 12:28:32;;;;;;;4.73;2.20;;;11.60;99.90;;;;;;5092064;28;20463;-68
2022/11/06 12:31:04;;;;;;;4.23;2.13;;;11.50;99.90;;;;;;5091829;28;20449;-67
2022/11/06 12:33:32;;;;;;;4.27;2.40;;;11.60;99.90;;;;;;5091970;28;20524;-68
2022/11/06 12:36:02;;;;;;;2.53;1.90;;;11.60;1.00;;;;;;5091428;28;20548;-69
2022/11/06 12:38:36;;;;;;;5.00;2.77;;;11.70;99.90;;;;;;5091859;28;20520;-68
2022/11/06 12:41:12;;;;;;;3.73;2.40;;;11.80;99.90;;;;;;5091213;28;20437;-68
2022/11/06 12:43:42;;;;;;;2.73;2.40;;;11.90;1.00;;;;;;5091648;28;20445;-68
2022/11/06 12:46:27;;;;;;;10.50;6.50;;;12.10;99.90;;;;;;5090741;28;20459;-69
2022/11/06 12:49:21;;;;;;;5.80;3.77;;;12.10;99.90;;;;;;5091449;28;20989;-68
2022/11/06 12:51:58;;;;;;;3.47;2.93;;;11.90;99.90;;;;;;5091134;28;20441;-68
2022/11/06 12:54:39;;;;;;;3.67;2.83;;;12.00;99.90;;;;;;5090538;28;20444;-68
2022/11/06 12:57:19;;;;;;;3.47;1.93;;;11.90;8.90;;;;;;5090412;28;20451;-67
2022/11/06 13:00:02;;;;;;;3.30;2.47;;;11.80;99.90;;;;;;5091214;28;21050;-68
2022/11/06 13:02:46;;;;;;;3.37;2.20;;;11.60;1.00;;;;;;5087572;28;20994;-67
2022/11/06 13:05:17;;;;;;;5.17;2.00;;;11.60;99.90;;;;;;5090377;28;20449;-67
2022/11/06 13:08:09;;;;;;;3.13;2.10;;;11.60;1.00;;;;;;5091553;28;20445;-68
2022/11/06 13:10:51;;;;;;;3.80;2.43;;;11.80;99.90;;;;;;5079483;28;20449;-68
2022/11/06 13:13:40;;;;;;;2.50;1.83;;;12.00;47.30;;;;;;5090660;28;20455;-68
2022/11/06 13:16:16;;;;;;;4.53;3.67;;;12.10;1.00;;;;;;5090088;28;21212;-67
2022/11/06 13:18:46;;;;;;;3.20;2.00;;;12.10;1.00;;;;;;5091361;28;20846;-68
2022/11/06 13:21:20;;;;;;;3.90;2.50;;;11.90;1.00;;;;;;5090923;28;20441;-68
2022/11/06 13:23:50;;;;;;;3.87;2.13;;;12.00;1.00;;;;;;5095011;28;20436;-68
2022/11/06 13:26:22;;;;;;;2.20;1.90;;;11.90;1.00;;;;;;5093742;28;20444;-67
2022/11/06 13:28:55;;;;;;;3.43;2.20;;;11.80;1.00;;;;;;5095286;28;20484;-68
2022/11/06 13:31:27;;;;;;;3.93;2.60;;;11.80;1.00;;;;;;5094500;28;20452;-68
2022/11/06 13:33:58;;;;;;;3.53;2.47;;;11.90;1.00;;;;;;5094645;28;20449;-68
2022/11/06 13:36:28;;;;;;;3.90;1.83;;;11.90;1.00;;;;;;5094289;28;20456;-68
2022/11/06 13:38:59;;;;;;;4.40;2.63;;;11.80;1.00;;;;;;5094838;28;20850;-68
2022/11/06 13:41:28;;;;;;;4.03;2.77;;;11.80;1.00;;;;;;5093988;28;20924;-68
2022/11/06 13:44:00;;;;;;;3.93;2.87;;;11.90;1.00;;;;;;5094501;28;20452;-68
2022/11/06 13:46:34;;;;;;;3.03;2.37;;;11.90;1.00;;;;;;5094298;28;20456;-68
2022/11/06 13:49:09;;;;;;;2.67;1.87;;;11.90;1.00;;;;;;5094605;28;20476;-68
2022/11/06 13:51:45;;;;;;;2.90;2.40;;;11.90;1.00;;;;;;5094937;28;20450;-68
2022/11/06 13:54:21;;;;;;;3.63;2.20;;;11.90;1.00;;;;;;5093934;28;20441;-68
2022/11/06 13:57:09;;;;;;;3.70;2.20;;;11.70;1.00;;;;;;5094573;28;20452;-68
2022/11/06 14:00:02;;;;;;;3.63;2.20;;;11.70;19.50;;;;;;5091290;28;20484;-68
2022/11/06 14:02:47;;;;;;;3.20;2.13;;;11.70;99.90;;;;;;5094652;28;20499;-68
2022/11/06 14:05:53;;;;;;;2.90;2.37;;;11.70;99.90;;;;;;5093490;28;20444;-69
2022/11/06 14:08:25;;;;;;;3.97;2.57;;;11.60;99.90;;;;;;5052444;28;20456;-69
2022/11/06 14:10:58;;;;;;;5.63;3.00;;;11.60;99.90;;;;;;5094040;28;20445;-68
2022/11/06 14:13:31;;;;;;;3.20;2.20;;;11.60;78.30;;;;;;5093575;28;20448;-69
2022/11/06 14:16:24;;;;;;;2.47;2.27;;;11.50;99.90;;;;;;5093426;28;20456;-69
2022/11/06 14:18:59;;;;;;;3.93;2.47;;;11.50;99.90;;;;;;5093933;28;20959;-69
2022/11/06 14:21:51;;;;;;;4.10;2.20;;;11.40;99.90;;;;;;5093017;28;20946;-69
2022/11/06 14:24:33;;;;;;;3.20;2.27;;;11.40;99.90;;;;;;5093008;28;20448;-68
2022/11/06 14:27:02;;;;;;;2.20;1.90;;;11.40;99.90;;;;;;5091760;28;20543;-69
2022/11/06 14:29:57;;;;;;;2.37;1.93;;;11.40;99.90;;;;;;5093671;28;20464;-69
2022/11/06 14:32:48;;;;;;;3.37;2.40;;;11.30;99.90;;;;;;5093009;28;20449;-69
2022/11/06 14:35:49;;;;;;;2.93;2.60;;;11.30;99.90;;;;;;5092675;28;20874;-69
2022/11/06 14:38:41;;;;;;;3.60;2.27;;;11.20;99.90;;;;;;5082614;28;20436;-68
2022/11/06 14:41:50;;;;;;;4.73;2.00;;;11.20;99.90;;;;;;5093004;28;20516;-68
2022/11/06 14:44:24;;;;;;;2.80;2.30;;;11.10;1.00;;;;;;5092754;28;20441;-69